sensor_id;sensor_type;location;lat;lon;timestamp;pressure;altitude;pressure_sealevel;temperature;humidity
44934;BME280;30667;43.614;1.442;2023-11-21T00:01:44;100305.38;;;10.57;100.00
44934;BME280;30667;43.614;1.442;2023-11-21T00:04:09;100305.38;;;10.57;100.00
44934;BME280;30667;43.614;1.442;2023-11-21T00:06:35;100296.16;;;10.58;100.00
44934;BME280;30667;43.614;1.442;2023-11-21T00:09:00;100298.34;;;10.56;100.00
44934;BME280;30667;43.614;1.442;2023-11-21T00:11:26;100302.66;;;10.62;100.00
44934;BME280;30667;43.614;1.442;2023-11-21T00:13:51;100297.81;;;10.59;100.00
44934;BME280;30667;43.614;1.442;2023-11-21T00:16:17;100301.88;;;10.61;100.00
44934;BME280;30667;43.614;1.442;2023-11-21T00:18:42;100298.34;;;10.61;100.00
44934;BME280;30667;43.614;1.442;2023-11-21T00:21:08;100292.91;;;10.61;100.00
44934;BME280;30667;43.614;1.442;2023-11-21T00:23:34;100301.03;;;10.61;100.00
44934;BME280;30667;43.614;1.442;2023-11-21T00:26:00;100299.97;;;10.62;100.00
44934;BME280;30667;43.614;1.442;2023-11-21T00:28:26;100295.09;;;10.59;100.00
44934;BME280;30667;43.614;1.442;2023-11-21T00:30:51;100295.09;;;10.59;100.00
44934;BME280;30667;43.614;1.442;2023-11-21T00:33:17;100294.81;;;10.60;100.00
44934;BME280;30667;43.614;1.442;2023-11-21T00:35:42;100292.13;;;10.60;100.00
44934;BME280;30667;43.614;1.442;2023-11-21T00:38:08;100291.59;;;10.58;100.00
44934;BME280;30667;43.614;1.442;2023-11-21T00:40:36;100287.50;;;10.56;100.00
44934;BME280;30667;43.614;1.442;2023-11-21T00:43:01;100285.09;;;10.54;100.00
44934;BME280;30667;43.614;1.442;2023-11-21T00:45:27;100290.75;;;10.52;100.00
44934;BME280;30667;43.614;1.442;2023-11-21T00:47:53;100277.75;;;10.54;100.00
44934;BME280;30667;43.614;1.442;2023-11-21T00:50:18;100274.25;;;10.54;100.00
44934;BME280;30667;43.614;1.442;2023-11-21T00:52:44;100279.13;;;10.52;100.00
44934;BME280;30667;43.614;1.442;2023-11-21T00:55:09;100270.50;;;10.50;100.00
44934;BME280;30667;43.614;1.442;2023-11-21T00:57:35;100268.84;;;10.49;100.00
44934;BME280;30667;43.614;1.442;2023-11-21T01:00:01;100266.13;;;10.54;100.00
44934;BME280;30667;43.614;1.442;2023-11-21T01:02:26;100268.84;;;10.54;100.00
44934;BME280;30667;43.614;1.442;2023-11-21T01:04:51;100268.31;;;10.52;100.00
44934;BME280;30667;43.614;1.442;2023-11-21T01:07:17;100264.53;;;10.53;100.00
44934;BME280;30667;43.614;1.442;2023-11-21T01:09:45;100261.84;;;10.53;100.00
44934;BME280;30667;43.614;1.442;2023-11-21T01:12:11;100261.25;;;10.56;100.00
44934;BME280;30667;43.614;1.442;2023-11-21T01:14:36;100261.25;;;10.56;100.00
44934;BME280;30667;43.614;1.442;2023-11-21T01:17:02;100258.56;;;10.56;100.00
44934;BME280;30667;43.614;1.442;2023-11-21T01:19:29;100253.16;;;10.56;100.00
44934;BME280;30667;43.614;1.442;2023-11-21T01:21:54;100250.72;;;10.54;100.00
44934;BME280;30667;43.614;1.442;2023-11-21T01:24:19;100251.00;;;10.58;100.00
44934;BME280;30667;43.614;1.442;2023-11-21T01:26:45;100243.16;;;10.57;100.00
44934;BME280;30667;43.614;1.442;2023-11-21T01:29:12;100248.00;;;10.54;100.00
44934;BME280;30667;43.614;1.442;2023-11-21T01:31:37;100249.91;;;10.54;100.00
44934;BME280;30667;43.614;1.442;2023-11-21T01:34:02;100239.38;;;10.63;100.00
44934;BME280;30667;43.614;1.442;2023-11-21T01:36:32;100235.03;;;10.57;100.00
44934;BME280;30667;43.614;1.442;2023-11-21T01:38:57;100234.22;;;10.51;100.00
44934;BME280;30667;43.614;1.442;2023-11-21T01:41:27;100241.53;;;10.50;100.00
44934;BME280;30667;43.614;1.442;2023-11-21T01:43:54;100239.09;;;10.49;100.00
44934;BME280;30667;43.614;1.442;2023-11-21T01:46:20;100243.16;;;10.57;100.00
44934;BME280;30667;43.614;1.442;2023-11-21T01:48:47;100250.44;;;10.56;100.00
44934;BME280;30667;43.614;1.442;2023-11-21T01:51:13;100242.59;;;10.54;100.00
44934;BME280;30667;43.614;1.442;2023-11-21T01:53:39;100251.00;;;10.53;100.00
44934;BME280;30667;43.614;1.442;2023-11-21T01:56:05;100235.84;;;10.52;100.00
44934;BME280;30667;43.614;1.442;2023-11-21T01:58:33;100228.28;;;10.49;100.00
44934;BME280;30667;43.614;1.442;2023-11-21T02:00:58;100232.59;;;10.45;100.00
44934;BME280;30667;43.614;1.442;2023-11-21T02:03:24;100230.69;;;10.40;100.00
44934;BME280;30667;43.614;1.442;2023-11-21T02:05:52;100234.78;;;10.38;100.00
44934;BME280;30667;43.614;1.442;2023-11-21T02:08:18;100223.69;;;10.34;100.00
44934;BME280;30667;43.614;1.442;2023-11-21T02:10:44;100216.34;;;10.29;100.00
44934;BME280;30667;43.614;1.442;2023-11-21T02:13:10;100217.97;;;10.25;100.00
44934;BME280;30667;43.614;1.442;2023-11-21T02:15:36;100220.13;;;10.23;100.00
44934;BME280;30667;43.614;1.442;2023-11-21T02:18:03;100210.94;;;10.19;100.00
44934;BME280;30667;43.614;1.442;2023-11-21T02:20:31;100215.53;;;10.24;100.00
44934;BME280;30667;43.614;1.442;2023-11-21T02:22:59;100209.06;;;10.20;100.00
44934;BME280;30667;43.614;1.442;2023-11-21T02:25:32;100212.31;;;10.22;100.00
44934;BME280;30667;43.614;1.442;2023-11-21T02:28:02;100214.75;;;10.18;100.00
44934;BME280;30667;43.614;1.442;2023-11-21T02:30:28;100201.22;;;10.18;100.00
44934;BME280;30667;43.614;1.442;2023-11-21T02:32:55;100200.13;;;10.14;100.00
44934;BME280;30667;43.614;1.442;2023-11-21T02:35:22;100200.41;;;10.12;100.00
44934;BME280;30667;43.614;1.442;2023-11-21T02:37:48;100190.38;;;10.13;100.00
44934;BME280;30667;43.614;1.442;2023-11-21T02:40:14;100187.41;;;10.09;100.00
44934;BME280;30667;43.614;1.442;2023-11-21T02:42:46;100178.22;;;10.10;100.00
44934;BME280;30667;43.614;1.442;2023-11-21T02:45:13;100180.09;;;10.10;100.00
44934;BME280;30667;43.614;1.442;2023-11-21T02:47:41;100179.03;;;10.06;100.00
44934;BME280;30667;43.614;1.442;2023-11-21T02:50:07;100168.50;;;10.04;100.00
44934;BME280;30667;43.614;1.442;2023-11-21T02:52:34;100173.38;;;10.02;100.00
44934;BME280;30667;43.614;1.442;2023-11-21T02:55:01;100170.41;;;10.04;100.00
44934;BME280;30667;43.614;1.442;2023-11-21T02:57:26;100172.53;;;10.02;100.00
44934;BME280;30667;43.614;1.442;2023-11-21T02:59:52;100162.56;;;10.02;100.00
44934;BME280;30667;43.614;1.442;2023-11-21T03:02:17;100151.44;;;9.98;100.00
44934;BME280;30667;43.614;1.442;2023-11-21T03:04:42;100148.75;;;9.98;100.00
44934;BME280;30667;43.614;1.442;2023-11-21T03:07:09;100162.81;;;9.95;100.00
44934;BME280;30667;43.614;1.442;2023-11-21T03:09:35;100159.56;;;9.93;100.00
44934;BME280;30667;43.614;1.442;2023-11-21T03:12:00;100159.56;;;9.93;100.00
44934;BME280;30667;43.614;1.442;2023-11-21T03:14:25;100158.22;;;9.96;100.00
44934;BME280;30667;43.614;1.442;2023-11-21T03:16:51;100149.59;;;9.99;100.00
44934;BME280;30667;43.614;1.442;2023-11-21T03:19:16;100137.66;;;9.95;100.00
44934;BME280;30667;43.614;1.442;2023-11-21T03:21:42;100131.47;;;9.94;100.00
44934;BME280;30667;43.614;1.442;2023-11-21T03:24:08;100131.22;;;9.91;100.00
44934;BME280;30667;43.614;1.442;2023-11-21T03:26:33;100125.81;;;9.91;100.00
44934;BME280;30667;43.614;1.442;2023-11-21T03:28:59;100144.72;;;9.91;100.00
44934;BME280;30667;43.614;1.442;2023-11-21T03:31:24;100141.44;;;9.89;100.00
44934;BME280;30667;43.614;1.442;2023-11-21T03:33:50;100141.44;;;9.89;100.00
44934;BME280;30667;43.614;1.442;2023-11-21T03:36:15;100133.34;;;9.89;100.00
44934;BME280;30667;43.614;1.442;2023-11-21T03:38:41;100134.97;;;9.90;100.00
44934;BME280;30667;43.614;1.442;2023-11-21T03:41:07;100131.75;;;9.88;100.00
44934;BME280;30667;43.614;1.442;2023-11-21T03:43:32;100135.78;;;9.85;100.00
44934;BME280;30667;43.614;1.442;2023-11-21T03:45:57;100136.31;;;9.87;100.00
44934;BME280;30667;43.614;1.442;2023-11-21T03:48:23;100133.63;;;9.87;100.00
44934;BME280;30667;43.614;1.442;2023-11-21T03:50:48;100130.38;;;9.85;100.00
44934;BME280;30667;43.614;1.442;2023-11-21T03:53:14;100125.50;;;9.87;100.00
44934;BME280;30667;43.614;1.442;2023-11-21T03:55:39;100133.34;;;9.89;100.00
44934;BME280;30667;43.614;1.442;2023-11-21T03:58:04;100134.44;;;9.88;100.00
44934;BME280;30667;43.614;1.442;2023-11-21T04:00:30;100137.41;;;9.86;100.00
44934;BME280;30667;43.614;1.442;2023-11-21T04:02:55;100140.38;;;9.85;100.00
44934;BME280;30667;43.614;1.442;2023-11-21T04:05:21;100129.31;;;9.86;100.00
44934;BME280;30667;43.614;1.442;2023-11-21T04:07:51;100122.28;;;9.85;100.00
44934;BME280;30667;43.614;1.442;2023-11-21T04:10:16;100116.34;;;9.83;100.00
44934;BME280;30667;43.614;1.442;2023-11-21T04:12:42;100119.03;;;9.83;100.00
44934;BME280;30667;43.614;1.442;2023-11-21T04:15:08;100117.41;;;9.82;100.00
44934;BME280;30667;43.614;1.442;2023-11-21T04:17:34;100118.19;;;9.82;100.00
44934;BME280;30667;43.614;1.442;2023-11-21T04:20:00;100116.34;;;9.83;100.00
44934;BME280;30667;43.614;1.442;2023-11-21T04:22:25;100112.28;;;9.80;100.00
44934;BME280;30667;43.614;1.442;2023-11-21T04:24:50;100113.34;;;9.79;100.00
44934;BME280;30667;43.614;1.442;2023-11-21T04:27:16;100110.38;;;9.76;100.00
44934;BME280;30667;43.614;1.442;2023-11-21T04:29:43;100106.34;;;9.73;100.00
44934;BME280;30667;43.614;1.442;2023-11-21T04:32:09;100105.25;;;9.74;100.00
44934;BME280;30667;43.614;1.442;2023-11-21T04:34:34;100099.56;;;9.71;100.00
44934;BME280;30667;43.614;1.442;2023-11-21T04:37:00;100101.72;;;9.74;100.00
44934;BME280;30667;43.614;1.442;2023-11-21T04:39:26;100101.47;;;9.70;100.00
44934;BME280;30667;43.614;1.442;2023-11-21T04:41:51;100096.34;;;9.69;100.00
44934;BME280;30667;43.614;1.442;2023-11-21T04:44:16;100092.53;;;9.70;100.00
44934;BME280;30667;43.614;1.442;2023-11-21T04:46:42;100097.13;;;9.69;100.00
44934;BME280;30667;43.614;1.442;2023-11-21T04:49:07;100098.22;;;9.68;100.00
44934;BME280;30667;43.614;1.442;2023-11-21T04:51:33;100097.13;;;9.69;100.00
44934;BME280;30667;43.614;1.442;2023-11-21T04:53:58;100088.75;;;9.71;100.00
44934;BME280;30667;43.614;1.442;2023-11-21T04:56:24;100090.41;;;9.72;100.00
44934;BME280;30667;43.614;1.442;2023-11-21T04:58:49;100094.69;;;9.73;100.00
44934;BME280;30667;43.614;1.442;2023-11-21T05:01:15;100088.50;;;9.72;100.00
44934;BME280;30667;43.614;1.442;2023-11-21T05:03:41;100078.22;;;9.74;100.00
44934;BME280;30667;43.614;1.442;2023-11-21T05:06:09;100092.25;;;9.76;100.00
44934;BME280;30667;43.614;1.442;2023-11-21T05:08:35;100084.72;;;9.78;100.00
44934;BME280;30667;43.614;1.442;2023-11-21T05:11:02;100089.28;;;9.78;100.00
44934;BME280;30667;43.614;1.442;2023-11-21T05:13:27;100093.09;;;9.82;100.00
44934;BME280;30667;43.614;1.442;2023-11-21T05:15:54;100083.34;;;9.81;100.00
44934;BME280;30667;43.614;1.442;2023-11-21T05:18:22;100087.41;;;9.84;100.00
44934;BME280;30667;43.614;1.442;2023-11-21T05:20:47;100083.63;;;9.85;100.00
44934;BME280;30667;43.614;1.442;2023-11-21T05:23:13;100083.09;;;9.88;100.00
44934;BME280;30667;43.614;1.442;2023-11-21T05:25:38;100094.72;;;9.88;100.00
44934;BME280;30667;43.614;1.442;2023-11-21T05:28:04;100089.84;;;9.90;100.00
44934;BME280;30667;43.614;1.442;2023-11-21T05:30:29;100078.22;;;9.90;100.00
44934;BME280;30667;43.614;1.442;2023-11-21T05:32:54;100087.38;;;9.94;100.00
44934;BME280;30667;43.614;1.442;2023-11-21T05:35:20;100079.28;;;9.94;100.00
44934;BME280;30667;43.614;1.442;2023-11-21T05:37:46;100084.16;;;9.97;100.00
44934;BME280;30667;43.614;1.442;2023-11-21T05:40:12;100084.41;;;9.95;100.00
44934;BME280;30667;43.614;1.442;2023-11-21T05:42:39;100090.38;;;9.97;100.00
44934;BME280;30667;43.614;1.442;2023-11-21T05:45:06;100091.72;;;10.00;100.00
44934;BME280;30667;43.614;1.442;2023-11-21T05:47:45;100089.00;;;10.00;100.00
44934;BME280;30667;43.614;1.442;2023-11-21T05:50:13;100090.38;;;9.97;100.00
44934;BME280;30667;43.614;1.442;2023-11-21T05:52:45;100087.94;;;10.01;100.00
44934;BME280;30667;43.614;1.442;2023-11-21T05:55:11;100084.69;;;10.20;100.00
44934;BME280;30667;43.614;1.442;2023-11-21T05:57:39;100075.22;;;10.32;100.00
44934;BME280;30667;43.614;1.442;2023-11-21T06:00:06;100075.47;;;10.36;100.00
44934;BME280;30667;43.614;1.442;2023-11-21T06:03:01;100073.25;;;10.53;100.00
44934;BME280;30667;43.614;1.442;2023-11-21T06:05:28;100073.31;;;10.28;100.00
44934;BME280;30667;43.614;1.442;2023-11-21T06:07:54;100070.06;;;10.21;100.00
44934;BME280;30667;43.614;1.442;2023-11-21T06:10:21;100076.03;;;10.12;100.00
44934;BME280;30667;43.614;1.442;2023-11-21T06:12:48;100085.22;;;10.06;100.00
44934;BME280;30667;43.614;1.442;2023-11-21T06:15:14;100089.03;;;10.05;100.00
44934;BME280;30667;43.614;1.442;2023-11-21T06:17:41;100084.97;;;10.03;100.00
44934;BME280;30667;43.614;1.442;2023-11-21T06:20:11;100087.13;;;10.00;100.00
44934;BME280;30667;43.614;1.442;2023-11-21T06:22:41;100087.94;;;10.01;100.00
44934;BME280;30667;43.614;1.442;2023-11-21T06:25:07;100087.94;;;10.01;100.00
44934;BME280;30667;43.614;1.442;2023-11-21T06:27:41;100087.41;;;10.04;100.00
44934;BME280;30667;43.614;1.442;2023-11-21T06:30:07;100088.75;;;10.02;100.00
44934;BME280;30667;43.614;1.442;2023-11-21T06:32:37;100082.53;;;10.01;100.00
44934;BME280;30667;43.614;1.442;2023-11-21T06:35:04;100077.41;;;9.99;100.00
44934;BME280;30667;43.614;1.442;2023-11-21T06:38:20;100070.66;;;10.02;100.00
44934;BME280;30667;43.614;1.442;2023-11-21T06:40:45;100072.25;;;10.03;100.00
44934;BME280;30667;43.614;1.442;2023-11-21T06:43:11;100080.09;;;10.05;100.00
44934;BME280;30667;43.614;1.442;2023-11-21T06:45:36;100082.78;;;10.05;100.00
44934;BME280;30667;43.614;1.442;2023-11-21T06:48:02;100081.72;;;10.00;100.00
44934;BME280;30667;43.614;1.442;2023-11-21T06:50:27;100084.16;;;10.02;100.00
44934;BME280;30667;43.614;1.442;2023-11-21T06:52:53;100086.03;;;10.02;100.00
44934;BME280;30667;43.614;1.442;2023-11-21T06:55:18;100081.47;;;10.02;100.00
44934;BME280;30667;43.614;1.442;2023-11-21T06:57:43;100076.84;;;10.08;100.00
44934;BME280;30667;43.614;1.442;2023-11-21T07:00:10;100083.06;;;10.08;100.00
44934;BME280;30667;43.614;1.442;2023-11-21T07:02:36;100092.00;;;10.09;100.00
44934;BME280;30667;43.614;1.442;2023-11-21T07:05:02;100084.41;;;10.11;100.00
44934;BME280;30667;43.614;1.442;2023-11-21T07:07:27;100083.88;;;10.09;100.00
44934;BME280;30667;43.614;1.442;2023-11-21T07:09:53;100083.06;;;10.08;100.00
44934;BME280;30667;43.614;1.442;2023-11-21T07:12:18;100089.03;;;10.05;100.00
44934;BME280;30667;43.614;1.442;2023-11-21T07:14:44;100089.56;;;10.07;100.00
44934;BME280;30667;43.614;1.442;2023-11-21T07:17:11;100090.09;;;10.04;100.00
44934;BME280;30667;43.614;1.442;2023-11-21T07:19:37;100099.00;;;10.05;100.00
44934;BME280;30667;43.614;1.442;2023-11-21T07:22:03;100100.13;;;10.04;100.00
44934;BME280;30667;43.614;1.442;2023-11-21T07:24:28;100099.84;;;10.05;100.00
44934;BME280;30667;43.614;1.442;2023-11-21T07:26:54;100107.66;;;10.07;100.00
44934;BME280;30667;43.614;1.442;2023-11-21T07:29:22;100106.59;;;10.08;100.00
44934;BME280;30667;43.614;1.442;2023-11-21T07:31:48;100113.34;;;10.10;100.00
44934;BME280;30667;43.614;1.442;2023-11-21T07:34:15;100122.25;;;10.11;100.00
44934;BME280;30667;43.614;1.442;2023-11-21T07:36:40;100123.59;;;10.08;100.00
44934;BME280;30667;43.614;1.442;2023-11-21T07:39:05;100126.31;;;10.08;100.00
44934;BME280;30667;43.614;1.442;2023-11-21T07:41:31;100133.34;;;10.09;100.00
44934;BME280;30667;43.614;1.442;2023-11-21T07:43:57;100139.56;;;10.10;100.00
44934;BME280;30667;43.614;1.442;2023-11-21T07:46:23;100134.97;;;10.10;100.00
44934;BME280;30667;43.614;1.442;2023-11-21T07:48:49;100142.00;;;10.11;100.00
44934;BME280;30667;43.614;1.442;2023-11-21T07:51:14;100138.22;;;10.12;100.00
44934;BME280;30667;43.614;1.442;2023-11-21T07:53:40;100133.88;;;10.11;100.00
44934;BME280;30667;43.614;1.442;2023-11-21T07:56:06;100145.78;;;10.15;100.00
44934;BME280;30667;43.614;1.442;2023-11-21T07:58:36;100140.66;;;10.14;100.00
44934;BME280;30667;43.614;1.442;2023-11-21T08:01:03;100143.88;;;10.16;100.00
44934;BME280;30667;43.614;1.442;2023-11-21T08:03:29;100147.69;;;10.15;100.00
44934;BME280;30667;43.614;1.442;2023-11-21T08:05:56;100149.00;;;10.17;100.00
44934;BME280;30667;43.614;1.442;2023-11-21T08:08:21;100159.03;;;10.17;100.00
44934;BME280;30667;43.614;1.442;2023-11-21T08:10:47;100158.75;;;10.18;100.00
44934;BME280;30667;43.614;1.442;2023-11-21T08:13:13;100156.31;;;10.22;100.00
44934;BME280;30667;43.614;1.442;2023-11-21T08:15:40;100154.97;;;10.25;100.00
44934;BME280;30667;43.614;1.442;2023-11-21T08:18:05;100153.06;;;10.30;100.00
44934;BME280;30667;43.614;1.442;2023-11-21T08:20:33;100157.41;;;10.31;100.00
44934;BME280;30667;43.614;1.442;2023-11-21T08:23:00;100165.00;;;10.34;100.00
44934;BME280;30667;43.614;1.442;2023-11-21T08:25:26;100149.31;;;10.36;100.00
44934;BME280;30667;43.614;1.442;2023-11-21T08:27:52;100156.06;;;10.39;100.00
44934;BME280;30667;43.614;1.442;2023-11-21T08:30:17;100154.97;;;10.40;100.00
44934;BME280;30667;43.614;1.442;2023-11-21T08:32:44;100158.22;;;10.42;100.00
44934;BME280;30667;43.614;1.442;2023-11-21T08:35:10;100155.25;;;10.44;100.00
44934;BME280;30667;43.614;1.442;2023-11-21T08:37:37;100157.41;;;10.42;100.00
44934;BME280;30667;43.614;1.442;2023-11-21T08:40:06;100156.59;;;10.46;100.00
44934;BME280;30667;43.614;1.442;2023-11-21T08:42:35;100157.69;;;10.45;100.00
44934;BME280;30667;43.614;1.442;2023-11-21T08:45:00;100163.63;;;10.47;100.00
44934;BME280;30667;43.614;1.442;2023-11-21T08:47:26;100166.84;;;10.49;100.00
44934;BME280;30667;43.614;1.442;2023-11-21T08:49:52;100163.88;;;10.51;100.00
44934;BME280;30667;43.614;1.442;2023-11-21T08:52:20;100163.34;;;10.54;100.00
44934;BME280;30667;43.614;1.442;2023-11-21T08:54:49;100164.69;;;10.57;100.00
44934;BME280;30667;43.614;1.442;2023-11-21T08:57:24;100163.31;;;10.59;100.00
44934;BME280;30667;43.614;1.442;2023-11-21T08:59:50;100161.16;;;10.61;100.00
44934;BME280;30667;43.614;1.442;2023-11-21T09:02:26;100164.16;;;10.60;100.00
44934;BME280;30667;43.614;1.442;2023-11-21T09:04:52;100163.34;;;10.64;100.00
44934;BME280;30667;43.614;1.442;2023-11-21T09:07:21;100167.91;;;10.64;100.00
44934;BME280;30667;43.614;1.442;2023-11-21T09:09:47;100165.19;;;10.64;100.00
44934;BME280;30667;43.614;1.442;2023-11-21T09:12:14;100166.59;;;10.61;100.00
44934;BME280;30667;43.614;1.442;2023-11-21T09:14:39;100168.75;;;10.64;100.00
44934;BME280;30667;43.614;1.442;2023-11-21T09:17:05;100168.47;;;10.66;100.00
44934;BME280;30667;43.614;1.442;2023-11-21T09:19:37;100160.34;;;10.66;100.00
44934;BME280;30667;43.614;1.442;2023-11-21T09:22:03;100163.59;;;10.68;100.00
44934;BME280;30667;43.614;1.442;2023-11-21T09:24:28;100166.03;;;10.69;100.00
44934;BME280;30667;43.614;1.442;2023-11-21T09:26:53;100164.91;;;10.76;100.00
44934;BME280;30667;43.614;1.442;2023-11-21T09:29:19;100159.22;;;10.72;100.00
44934;BME280;30667;43.614;1.442;2023-11-21T09:31:44;100165.44;;;10.78;100.00
44934;BME280;30667;43.614;1.442;2023-11-21T09:34:10;100166.25;;;10.78;100.00
44934;BME280;30667;43.614;1.442;2023-11-21T09:36:36;100159.50;;;10.81;100.00
44934;BME280;30667;43.614;1.442;2023-11-21T09:39:04;100163.81;;;10.82;100.00
44934;BME280;30667;43.614;1.442;2023-11-21T09:41:52;100167.31;;;10.87;100.00
44934;BME280;30667;43.614;1.442;2023-11-21T09:44:33;100163.25;;;10.90;100.00
44934;BME280;30667;43.614;1.442;2023-11-21T09:47:01;100170.03;;;10.87;100.00
44934;BME280;30667;43.614;1.442;2023-11-21T09:49:28;100170.03;;;10.87;100.00
44934;BME280;30667;43.614;1.442;2023-11-21T09:51:55;100176.78;;;10.90;100.00
44934;BME280;30667;43.614;1.442;2023-11-21T09:54:23;100172.69;;;10.93;100.00
44934;BME280;30667;43.614;1.442;2023-11-21T09:56:50;100174.84;;;10.96;100.00
44934;BME280;30667;43.614;1.442;2023-11-21T09:59:16;100170.81;;;10.98;100.00
44934;BME280;30667;43.614;1.442;2023-11-21T10:01:42;100179.69;;;11.04;100.00
44934;BME280;30667;43.614;1.442;2023-11-21T10:04:08;100173.22;;;11.05;100.00
44934;BME280;30667;43.614;1.442;2023-11-21T10:06:40;100177.81;;;11.04;100.00
44934;BME280;30667;43.614;1.442;2023-11-21T10:09:09;100176.16;;;11.08;100.00
44934;BME280;30667;43.614;1.442;2023-11-21T10:11:40;100169.16;;;11.07;100.00
44934;BME280;30667;43.614;1.442;2023-11-21T10:14:08;100174.00;;;11.11;100.00
44934;BME280;30667;43.614;1.442;2023-11-21T10:16:36;100174.53;;;11.13;100.00
44934;BME280;30667;43.614;1.442;2023-11-21T10:19:03;100176.97;;;11.14;100.00
44934;BME280;30667;43.614;1.442;2023-11-21T10:21:29;100176.94;;;11.19;100.00
44934;BME280;30667;43.614;1.442;2023-11-21T10:23:55;100176.91;;;11.24;100.00
44934;BME280;30667;43.614;1.442;2023-11-21T10:26:22;100168.78;;;11.24;100.00
44934;BME280;30667;43.614;1.442;2023-11-21T10:28:58;100181.78;;;11.27;100.00
44934;BME280;30667;43.614;1.442;2023-11-21T10:31:27;100167.13;;;11.34;100.00
44934;BME280;30667;43.614;1.442;2023-11-21T10:33:52;100161.97;;;11.32;100.00
44934;BME280;30667;43.614;1.442;2023-11-21T10:36:27;100167.91;;;11.39;100.00
44934;BME280;30667;43.614;1.442;2023-11-21T10:38:53;100167.88;;;11.44;100.00
44934;BME280;30667;43.614;1.442;2023-11-21T10:41:22;100163.56;;;11.38;100.00
44934;BME280;30667;43.614;1.442;2023-11-21T10:43:48;100167.13;;;11.34;100.00
44934;BME280;30667;43.614;1.442;2023-11-21T10:46:14;100161.97;;;11.32;100.00
44934;BME280;30667;43.614;1.442;2023-11-21T10:48:41;100161.72;;;11.29;100.00
44934;BME280;30667;43.614;1.442;2023-11-21T10:51:07;100163.38;;;11.30;100.00
44934;BME280;30667;43.614;1.442;2023-11-21T10:53:38;100163.88;;;11.32;100.00
44934;BME280;30667;43.614;1.442;2023-11-21T10:56:06;100170.91;;;11.38;100.00
44934;BME280;30667;43.614;1.442;2023-11-21T10:58:35;100169.78;;;11.39;100.00
44934;BME280;30667;43.614;1.442;2023-11-21T11:01:02;100169.78;;;11.39;100.00
44934;BME280;30667;43.614;1.442;2023-11-21T11:03:31;100172.22;;;11.40;100.00
44934;BME280;30667;43.614;1.442;2023-11-21T11:05:59;100166.53;;;11.42;100.00
44934;BME280;30667;43.614;1.442;2023-11-21T11:08:24;100171.19;;;11.31;100.00
44934;BME280;30667;43.614;1.442;2023-11-21T11:10:52;100167.13;;;11.34;100.00
44934;BME280;30667;43.614;1.442;2023-11-21T11:13:18;100173.34;;;11.34;100.00
44934;BME280;30667;43.614;1.442;2023-11-21T11:15:47;100169.63;;;11.25;100.00
44934;BME280;30667;43.614;1.442;2023-11-21T11:18:12;100173.41;;;11.24;100.00
44934;BME280;30667;43.614;1.442;2023-11-21T11:20:40;100185.06;;;11.19;100.00
44934;BME280;30667;43.614;1.442;2023-11-21T11:23:17;100192.09;;;11.15;100.00
44934;BME280;30667;43.614;1.442;2023-11-21T11:26:18;100196.47;;;11.11;100.00
44934;BME280;30667;43.614;1.442;2023-11-21T11:29:03;100194.59;;;11.06;100.00
44934;BME280;30667;43.614;1.442;2023-11-21T11:34:23;100197.06;;;11.03;100.00
44934;BME280;30667;43.614;1.442;2023-11-21T11:39:37;100201.09;;;11.11;100.00
44934;BME280;30667;43.614;1.442;2023-11-21T11:42:06;100206.22;;;11.12;100.00
44934;BME280;30667;43.614;1.442;2023-11-21T11:47:28;100199.22;;;11.06;100.00
44934;BME280;30667;43.614;1.442;2023-11-21T11:52:49;100182.97;;;11.06;100.00
44934;BME280;30667;43.614;1.442;2023-11-21T11:55:18;100173.72;;;11.07;100.00
44934;BME280;30667;43.614;1.442;2023-11-21T11:57:45;100169.91;;;11.13;100.00
44934;BME280;30667;43.614;1.442;2023-11-21T12:00:17;100156.38;;;11.13;100.00
44934;BME280;30667;43.614;1.442;2023-11-21T12:02:52;100156.91;;;11.20;100.00
44934;BME280;30667;43.614;1.442;2023-11-21T12:05:19;100150.66;;;11.25;100.00
44934;BME280;30667;43.614;1.442;2023-11-21T12:10:22;100149.81;;;11.30;100.00
44934;BME280;30667;43.614;1.442;2023-11-21T12:12:51;100150.06;;;11.33;100.00
44934;BME280;30667;43.614;1.442;2023-11-21T12:15:20;100143.25;;;11.36;100.00
44934;BME280;30667;43.614;1.442;2023-11-21T12:17:47;100135.13;;;11.36;100.00
44934;BME280;30667;43.614;1.442;2023-11-21T12:20:15;100130.00;;;11.39;100.00
44934;BME280;30667;43.614;1.442;2023-11-21T12:22:56;100123.78;;;11.34;100.00
44934;BME280;30667;43.614;1.442;2023-11-21T12:25:29;100129.44;;;11.42;100.00
44934;BME280;30667;43.614;1.442;2023-11-21T12:27:57;100131.84;;;11.44;100.00
44934;BME280;30667;43.614;1.442;2023-11-21T12:30:24;100128.88;;;11.40;100.00
44934;BME280;30667;43.614;1.442;2023-11-21T12:32:54;100138.34;;;11.43;100.00
44934;BME280;30667;43.614;1.442;2023-11-21T12:35:22;100139.44;;;11.42;100.00
44934;BME280;30667;43.614;1.442;2023-11-21T12:37:49;100136.25;;;11.35;100.00
44934;BME280;30667;43.614;1.442;2023-11-21T12:40:16;100145.72;;;11.32;100.00
44934;BME280;30667;43.614;1.442;2023-11-21T12:42:43;100144.66;;;11.33;100.00
44934;BME280;30667;43.614;1.442;2023-11-21T12:45:23;100155.72;;;11.37;100.00
44934;BME280;30667;43.614;1.442;2023-11-21T12:47:53;100149.50;;;11.36;100.00
44934;BME280;30667;43.614;1.442;2023-11-21T12:50:24;100153.25;;;11.40;100.00
44934;BME280;30667;43.614;1.442;2023-11-21T12:52:54;100155.66;;;11.47;100.00
44934;BME280;30667;43.614;1.442;2023-11-21T12:55:23;100160.84;;;11.43;100.00
44934;BME280;30667;43.614;1.442;2023-11-21T12:57:51;100150.22;;;11.47;100.00